createdAt,value
2023-12-15T00:00:06.401Z,100.00
2023-12-15T00:02:36.080Z,100.00
2023-12-15T00:05:05.649Z,100.00
2023-12-15T00:07:34.435Z,100.00
2023-12-15T00:10:03.389Z,100.00
2023-12-15T00:12:32.074Z,100.00
2023-12-15T00:15:00.657Z,100.00
2023-12-15T00:17:29.036Z,100.00
2023-12-15T00:19:57.581Z,100.00
2023-12-15T00:22:25.915Z,100.00
2023-12-15T00:24:54.954Z,100.00
2023-12-15T00:27:23.289Z,100.00
2023-12-15T00:29:51.704Z,100.00
2023-12-15T00:32:20.296Z,100.00
2023-12-15T00:34:49.064Z,100.00
2023-12-15T00:37:17.662Z,100.00
2023-12-15T00:39:45.933Z,100.00
2023-12-15T00:42:14.250Z,100.00
2023-12-15T00:44:42.917Z,99.30
2023-12-15T00:47:11.500Z,98.88
2023-12-15T00:49:39.774Z,99.08
2023-12-15T00:52:08.331Z,98.34
2023-12-15T00:54:36.929Z,98.06
2023-12-15T00:57:05.688Z,98.03
2023-12-15T00:59:34.437Z,98.49
2023-12-15T01:02:05.609Z,98.61
2023-12-15T01:04:34.451Z,99.08
2023-12-15T01:07:03.106Z,99.24
2023-12-15T01:09:31.524Z,99.08
2023-12-15T01:12:00.415Z,98.85
2023-12-15T01:14:29.144Z,99.03
2023-12-15T01:16:57.597Z,98.44
2023-12-15T01:19:28.777Z,98.26
2023-12-15T01:21:57.975Z,97.99
2023-12-15T01:24:26.312Z,98.16
2023-12-15T01:26:54.903Z,98.37
2023-12-15T01:29:23.376Z,98.44
2023-12-15T01:31:51.768Z,98.57
2023-12-15T01:34:20.719Z,98.55
2023-12-15T01:36:49.618Z,98.81
2023-12-15T01:39:18.307Z,98.79
2023-12-15T01:41:46.790Z,98.90
2023-12-15T01:44:15.200Z,99.05
2023-12-15T01:46:44.172Z,99.09
2023-12-15T01:49:12.590Z,99.10
2023-12-15T01:51:41.417Z,99.26
2023-12-15T01:54:09.794Z,99.26
2023-12-15T01:56:38.693Z,99.28
2023-12-15T01:59:07.061Z,99.34
2023-12-15T02:01:35.455Z,99.32
2023-12-15T02:04:03.956Z,99.39
2023-12-15T02:06:32.296Z,99.32
2023-12-15T02:09:01.209Z,99.20
2023-12-15T02:11:30.024Z,99.25
2023-12-15T02:13:58.482Z,99.21
2023-12-15T02:16:26.861Z,99.12
2023-12-15T02:18:55.307Z,99.20
2023-12-15T02:21:24.159Z,99.15
2023-12-15T02:23:52.398Z,98.70
2023-12-15T02:26:20.911Z,98.16
2023-12-15T02:28:49.439Z,98.23
2023-12-15T02:31:19.266Z,97.82
2023-12-15T02:33:48.072Z,98.09
2023-12-15T02:36:20.305Z,98.01
2023-12-15T02:38:48.930Z,98.32
2023-12-15T02:41:17.646Z,98.09
2023-12-15T02:43:46.032Z,97.77
2023-12-15T02:46:14.472Z,97.40
2023-12-15T02:48:42.855Z,97.53
2023-12-15T02:51:11.598Z,97.68
2023-12-15T02:53:40.841Z,97.53
2023-12-15T02:56:10.769Z,97.33
2023-12-15T02:58:40.106Z,97.30
2023-12-15T03:01:08.475Z,97.29
2023-12-15T03:03:37.332Z,97.44
2023-12-15T03:06:06.890Z,97.28
2023-12-15T03:08:35.330Z,96.87
2023-12-15T03:11:03.994Z,96.97
2023-12-15T03:13:32.652Z,96.79
2023-12-15T03:16:06.569Z,96.30
2023-12-15T03:18:34.983Z,95.26
2023-12-15T03:21:03.571Z,95.05
2023-12-15T03:23:32.473Z,95.57
2023-12-15T03:26:01.031Z,94.98
2023-12-15T03:28:31.926Z,95.51
2023-12-15T03:31:02.913Z,95.36
2023-12-15T03:33:37.231Z,95.33
2023-12-15T03:36:08.277Z,95.19
2023-12-15T03:38:36.763Z,95.33
2023-12-15T03:41:07.153Z,95.09
2023-12-15T03:43:36.139Z,95.12
2023-12-15T03:46:05.729Z,95.34
2023-12-15T03:48:34.203Z,94.59
2023-12-15T03:51:03.060Z,94.25
2023-12-15T03:53:31.946Z,94.12
2023-12-15T03:56:00.403Z,93.82
2023-12-15T03:58:28.750Z,93.58
2023-12-15T04:00:57.149Z,93.68
2023-12-15T04:03:25.601Z,93.55
2023-12-15T04:05:54.008Z,94.11
2023-12-15T04:08:22.514Z,93.97
2023-12-15T04:10:50.907Z,93.89
2023-12-15T04:13:19.278Z,93.95
2023-12-15T04:15:49.876Z,94.31
2023-12-15T04:18:18.314Z,94.03
2023-12-15T04:20:46.772Z,94.36
2023-12-15T04:23:16.896Z,94.46
2023-12-15T04:25:45.594Z,94.49
2023-12-15T04:28:14.050Z,94.69
2023-12-15T04:30:42.317Z,94.51
2023-12-15T04:33:11.041Z,94.49
2023-12-15T04:35:39.433Z,94.35
2023-12-15T04:38:07.975Z,94.49
2023-12-15T04:40:36.335Z,94.41
2023-12-15T04:43:04.723Z,94.23
2023-12-15T04:45:34.525Z,94.36
2023-12-15T04:48:03.401Z,94.14
2023-12-15T04:50:32.944Z,94.15
2023-12-15T04:53:02.692Z,93.95
2023-12-15T04:55:31.045Z,93.68
2023-12-15T04:57:59.762Z,94.02
2023-12-15T05:00:28.307Z,94.00
2023-12-15T05:02:56.892Z,94.08
2023-12-15T05:05:25.373Z,93.95
2023-12-15T05:07:54.268Z,94.01
2023-12-15T05:10:22.790Z,94.24
2023-12-15T05:12:51.373Z,93.93
2023-12-15T05:15:20.937Z,93.86
2023-12-15T05:17:50.430Z,93.93
2023-12-15T05:20:20.622Z,93.78
2023-12-15T05:22:49.201Z,93.85
2023-12-15T05:25:17.648Z,93.81
2023-12-15T05:27:45.961Z,93.62
2023-12-15T05:30:15.383Z,93.87
2023-12-15T05:32:44.433Z,93.84
2023-12-15T05:35:12.922Z,93.40
2023-12-15T05:37:41.444Z,93.24
2023-12-15T05:40:13.047Z,93.56
2023-12-15T05:42:41.338Z,93.66
2023-12-15T05:45:11.597Z,93.46
2023-12-15T05:47:41.366Z,93.36
2023-12-15T05:50:13.522Z,93.19
2023-12-15T05:52:41.949Z,93.31
2023-12-15T05:55:10.529Z,93.30
2023-12-15T05:57:39.662Z,93.30
2023-12-15T06:00:10.737Z,93.31
2023-12-15T06:02:39.380Z,93.26
2023-12-15T06:05:08.711Z,93.02
2023-12-15T06:07:37.398Z,93.15
2023-12-15T06:10:08.134Z,93.19
2023-12-15T06:12:36.425Z,93.07
2023-12-15T06:15:12.443Z,92.99
2023-12-15T06:17:43.176Z,92.78
2023-12-15T06:20:14.495Z,92.83
2023-12-15T06:22:43.191Z,92.81
2023-12-15T06:25:14.564Z,92.65
2023-12-15T06:27:42.923Z,92.73
2023-12-15T06:30:14.096Z,92.78
2023-12-15T06:32:42.581Z,92.75
2023-12-15T06:35:11.068Z,92.89
2023-12-15T06:37:39.685Z,92.69
2023-12-15T06:40:10.096Z,92.95
2023-12-15T06:42:38.839Z,92.81
2023-12-15T06:45:09.898Z,92.76
2023-12-15T06:47:39.287Z,92.60
2023-12-15T06:50:10.158Z,92.42
2023-12-15T06:52:39.254Z,92.08
2023-12-15T06:55:08.706Z,91.94
2023-12-15T06:57:37.607Z,91.96
2023-12-15T07:00:08.712Z,91.41
2023-12-15T07:02:37.423Z,91.46
2023-12-15T07:05:08.168Z,91.79
2023-12-15T07:07:37.443Z,91.97
2023-12-15T07:10:08.303Z,91.90
2023-12-15T07:12:36.711Z,91.92
2023-12-15T07:15:06.972Z,91.90
2023-12-15T07:17:35.690Z,91.75
2023-12-15T07:20:06.284Z,91.73
2023-12-15T07:22:34.657Z,91.64
2023-12-15T07:25:03.238Z,91.40
2023-12-15T07:27:31.507Z,90.74
2023-12-15T07:29:59.921Z,90.68
2023-12-15T07:32:28.524Z,90.39
2023-12-15T07:34:58.321Z,90.38
2023-12-15T07:37:26.612Z,90.19
2023-12-15T07:39:56.414Z,89.55
2023-12-15T07:42:24.772Z,89.68
2023-12-15T07:44:53.208Z,89.87
2023-12-15T07:47:21.471Z,88.97
2023-12-15T07:49:49.864Z,88.50
2023-12-15T07:52:18.146Z,88.29
2023-12-15T07:54:46.946Z,88.16
2023-12-15T07:57:16.271Z,87.95
2023-12-15T07:59:44.787Z,87.77
2023-12-15T08:02:13.111Z,88.10
2023-12-15T08:04:42.046Z,88.41
2023-12-15T08:07:11.479Z,88.48
2023-12-15T08:09:40.146Z,88.22
2023-12-15T08:12:10.056Z,88.51
2023-12-15T08:14:38.495Z,88.07
2023-12-15T08:17:06.998Z,88.32
2023-12-15T08:19:35.579Z,88.88
2023-12-15T08:22:04.302Z,89.25
2023-12-15T08:24:32.966Z,89.61
2023-12-15T08:27:01.840Z,90.22
2023-12-15T08:29:30.273Z,90.77
2023-12-15T08:31:58.849Z,91.75
2023-12-15T08:34:28.552Z,91.92
2023-12-15T08:36:57.146Z,92.22
2023-12-15T08:39:25.526Z,92.46
2023-12-15T08:41:53.955Z,92.72
2023-12-15T08:44:29.266Z,93.09
2023-12-15T08:47:02.760Z,93.60
2023-12-15T08:49:31.375Z,94.34
2023-12-15T08:51:59.760Z,94.32
2023-12-15T08:54:28.801Z,95.06
2023-12-15T08:56:57.323Z,96.03
2023-12-15T08:59:25.810Z,95.97
2023-12-15T09:01:54.599Z,96.31
2023-12-15T09:04:23.491Z,96.16
2023-12-15T09:06:53.067Z,96.32
2023-12-15T09:09:22.460Z,96.69
2023-12-15T09:11:50.820Z,96.57
2023-12-15T09:14:22.039Z,96.60
2023-12-15T09:16:50.496Z,96.77
2023-12-15T09:19:19.145Z,96.86
2023-12-15T09:21:48.041Z,96.96
2023-12-15T09:24:18.468Z,97.57
2023-12-15T09:26:47.167Z,97.66
2023-12-15T09:29:16.289Z,97.79
2023-12-15T09:31:44.843Z,97.05
2023-12-15T09:34:14.289Z,96.63
2023-12-15T09:36:43.532Z,96.01
2023-12-15T09:39:12.971Z,95.85
2023-12-15T09:41:41.392Z,95.84
2023-12-15T09:44:09.733Z,95.51
2023-12-15T09:46:38.655Z,94.97
2023-12-15T09:49:07.132Z,94.83
2023-12-15T09:51:38.214Z,94.11
2023-12-15T09:54:06.932Z,93.52
2023-12-15T09:56:35.204Z,93.94
2023-12-15T09:59:04.266Z,93.36
2023-12-15T10:01:34.224Z,93.55
2023-12-15T10:04:03.108Z,93.79
2023-12-15T10:06:34.944Z,93.66
2023-12-15T10:09:03.997Z,94.09
2023-12-15T10:11:35.109Z,94.07
2023-12-15T10:14:05.261Z,94.16
2023-12-15T10:16:33.802Z,93.92
2023-12-15T10:19:04.653Z,94.09
2023-12-15T10:21:33.877Z,94.26
2023-12-15T10:24:19.054Z,94.32
2023-12-15T10:26:47.541Z,94.46
2023-12-15T10:29:16.027Z,94.20
2023-12-15T10:31:44.424Z,93.93
2023-12-15T10:34:12.775Z,93.95
2023-12-15T10:36:45.420Z,94.16
2023-12-15T10:39:14.338Z,94.38
2023-12-15T10:41:43.364Z,94.65
2023-12-15T10:44:13.033Z,94.29
2023-12-15T10:46:43.048Z,94.42
2023-12-15T10:49:13.861Z,94.23
2023-12-15T10:51:44.187Z,94.01
2023-12-15T10:54:12.458Z,94.15
2023-12-15T10:56:40.804Z,93.87
2023-12-15T10:59:10.067Z,93.70
2023-12-15T11:01:40.910Z,93.53
2023-12-15T11:04:20.195Z,93.52
2023-12-15T11:06:49.384Z,93.53
2023-12-15T11:09:36.192Z,93.78
2023-12-15T11:12:29.675Z,93.52
2023-12-15T11:15:03.801Z,94.11
2023-12-15T11:17:31.610Z,93.94
2023-12-15T11:20:06.810Z,93.77
2023-12-15T11:22:54.425Z,93.44
2023-12-15T11:25:31.183Z,93.51
2023-12-15T11:28:00.471Z,93.70
2023-12-15T11:30:36.878Z,93.04
2023-12-15T11:33:40.519Z,93.13
2023-12-15T11:36:10.134Z,92.71
2023-12-15T11:38:39.888Z,92.87
2023-12-15T11:41:11.341Z,92.78
2023-12-15T11:43:44.032Z,92.88
2023-12-15T11:46:12.621Z,93.06
2023-12-15T11:48:42.242Z,93.03
2023-12-15T11:51:11.041Z,93.19
2023-12-15T11:53:42.156Z,92.76
2023-12-15T11:56:12.012Z,92.97
2023-12-15T11:58:40.797Z,92.71
2023-12-15T12:01:09.417Z,92.27
2023-12-15T12:03:37.872Z,92.12
2023-12-15T12:06:09.235Z,92.34
2023-12-15T12:08:37.907Z,91.90
2023-12-15T12:11:09.310Z,92.00
2023-12-15T12:13:40.166Z,91.33
2023-12-15T12:16:08.859Z,91.71
2023-12-15T12:18:37.552Z,91.56
2023-12-15T12:21:08.314Z,91.53
2023-12-15T12:23:43.352Z,91.30
2023-12-15T12:26:15.668Z,91.29
2023-12-15T12:28:48.948Z,91.65
2023-12-15T12:31:17.318Z,91.65
2023-12-15T12:33:46.160Z,91.63
2023-12-15T12:36:15.521Z,91.64
2023-12-15T12:38:43.932Z,91.75
2023-12-15T12:41:13.101Z,91.98
2023-12-15T12:43:42.170Z,91.97
2023-12-15T12:46:12.143Z,91.71
2023-12-15T12:48:41.203Z,91.47
2023-12-15T12:51:09.835Z,91.51
2023-12-15T12:53:38.244Z,91.70
2023-12-15T12:56:08.217Z,91.66
2023-12-15T12:58:36.825Z,91.43
2023-12-15T13:01:05.859Z,91.62
2023-12-15T13:03:34.385Z,91.95
2023-12-15T13:06:03.057Z,91.43
2023-12-15T13:08:31.844Z,91.66
2023-12-15T13:11:00.614Z,92.00
2023-12-15T13:13:29.125Z,91.26
2023-12-15T13:15:57.550Z,91.24
2023-12-15T13:18:26.097Z,91.07
2023-12-15T13:20:54.631Z,91.62
2023-12-15T13:23:23.514Z,91.49
2023-12-15T13:25:52.371Z,91.21
2023-12-15T13:28:21.390Z,91.13
2023-12-15T13:30:50.574Z,91.25
2023-12-15T13:33:19.238Z,91.18
2023-12-15T13:35:48.521Z,91.01
2023-12-15T13:38:18.418Z,90.99
2023-12-15T13:40:47.024Z,91.11
2023-12-15T13:43:15.394Z,91.44
2023-12-15T13:45:50.604Z,91.44
2023-12-15T13:48:22.675Z,91.59
2023-12-15T13:50:51.287Z,91.83
2023-12-15T13:53:20.063Z,92.01
2023-12-15T13:55:48.620Z,92.12
2023-12-15T13:58:20.451Z,92.08
2023-12-15T14:00:49.372Z,92.55
2023-12-15T14:03:17.893Z,92.78
2023-12-15T14:05:46.307Z,93.03
2023-12-15T14:08:20.126Z,92.96
2023-12-15T14:10:49.083Z,93.03
2023-12-15T14:13:17.590Z,93.07
2023-12-15T14:15:47.364Z,93.23
2023-12-15T14:18:15.953Z,93.40
2023-12-15T14:20:44.484Z,93.45
2023-12-15T14:23:13.549Z,93.63
2023-12-15T14:25:43.606Z,93.74
2023-12-15T14:28:12.278Z,93.75
2023-12-15T14:30:41.654Z,93.77
2023-12-15T14:33:10.304Z,93.91
2023-12-15T14:35:38.968Z,93.79
2023-12-15T14:38:09.261Z,93.84
2023-12-15T14:40:37.699Z,94.01
2023-12-15T14:43:06.500Z,93.96
2023-12-15T14:45:34.868Z,94.17
2023-12-15T14:48:19.598Z,94.11
2023-12-15T14:50:50.442Z,94.07
2023-12-15T14:53:18.961Z,94.18
2023-12-15T14:55:47.606Z,94.17
2023-12-15T14:58:16.610Z,94.04
2023-12-15T15:00:45.174Z,94.25
2023-12-15T15:03:14.499Z,94.78
2023-12-15T15:05:44.711Z,94.85
2023-12-15T15:08:14.352Z,94.63
2023-12-15T15:10:42.874Z,94.51
2023-12-15T15:13:11.170Z,94.25
2023-12-15T15:15:39.500Z,94.04
2023-12-15T15:18:07.925Z,93.85
2023-12-15T15:20:36.351Z,93.53
2023-12-15T15:23:04.853Z,93.79
2023-12-15T15:25:33.168Z,93.83
2023-12-15T15:28:01.480Z,93.63
2023-12-15T15:30:30.159Z,93.67
2023-12-15T15:32:58.650Z,93.66
2023-12-15T15:35:28.846Z,93.72
2023-12-15T15:37:58.255Z,93.75
2023-12-15T15:40:26.547Z,93.81
2023-12-15T15:42:54.955Z,93.97
2023-12-15T15:45:23.800Z,94.56
2023-12-15T15:47:54.734Z,94.42
2023-12-15T15:50:23.085Z,93.77
2023-12-15T15:52:52.314Z,93.53
2023-12-15T15:55:20.891Z,93.14
2023-12-15T15:57:49.736Z,93.30
2023-12-15T16:00:20.862Z,93.31
2023-12-15T16:02:51.446Z,93.58
2023-12-15T16:05:21.114Z,93.68
2023-12-15T16:07:50.086Z,93.59
2023-12-15T16:10:18.524Z,93.43
2023-12-15T16:12:47.128Z,93.47
2023-12-15T16:15:17.199Z,93.39
2023-12-15T16:17:46.197Z,93.43
2023-12-15T16:20:14.763Z,93.40
2023-12-15T16:22:43.145Z,93.35
2023-12-15T16:25:11.568Z,92.89
2023-12-15T16:27:41.566Z,92.98
2023-12-15T16:30:14.205Z,93.12
2023-12-15T16:32:43.631Z,92.91
2023-12-15T16:35:12.176Z,92.85
2023-12-15T16:37:41.682Z,93.01
2023-12-15T16:40:12.131Z,92.89
2023-12-15T16:42:45.025Z,92.69
2023-12-15T16:45:14.444Z,92.53
2023-12-15T16:47:44.073Z,92.15
2023-12-15T16:50:12.956Z,92.02
2023-12-15T16:52:41.438Z,92.14
2023-12-15T16:55:10.469Z,91.78
2023-12-15T16:57:40.521Z,91.70
2023-12-15T17:00:12.296Z,91.68
2023-12-15T17:02:42.187Z,91.89
2023-12-15T17:05:10.936Z,91.81
2023-12-15T17:07:39.480Z,91.67
2023-12-15T17:10:09.219Z,90.93
2023-12-15T17:12:37.772Z,91.03
2023-12-15T17:15:08.941Z,90.37
2023-12-15T17:17:39.464Z,90.65
2023-12-15T17:20:11.466Z,90.22
2023-12-15T17:22:40.552Z,90.31
2023-12-15T17:25:11.697Z,90.16
2023-12-15T17:27:41.160Z,89.89
2023-12-15T17:30:12.032Z,90.07
2023-12-15T17:32:42.734Z,89.80
2023-12-15T17:35:11.714Z,90.11
2023-12-15T17:37:40.085Z,90.09
2023-12-15T17:40:10.679Z,90.17
2023-12-15T17:42:39.210Z,90.32
2023-12-15T17:45:09.820Z,90.51
2023-12-15T17:47:38.491Z,90.69
2023-12-15T17:50:09.008Z,90.81
2023-12-15T17:52:37.494Z,90.87
2023-12-15T17:55:07.177Z,91.08
2023-12-15T17:57:36.157Z,91.09
2023-12-15T18:00:07.488Z,90.99
2023-12-15T18:02:35.852Z,91.17
2023-12-15T18:05:05.108Z,91.39
2023-12-15T18:07:33.433Z,91.59
2023-12-15T18:10:02.017Z,91.67
2023-12-15T18:12:30.414Z,91.82
2023-12-15T18:14:58.917Z,92.14
2023-12-15T18:17:27.428Z,92.42
2023-12-15T18:19:55.984Z,92.45
2023-12-15T18:22:24.509Z,92.40
2023-12-15T18:24:52.970Z,92.51
2023-12-15T18:27:23.143Z,92.50
2023-12-15T18:29:52.261Z,92.55
2023-12-15T18:32:20.633Z,92.46
2023-12-15T18:34:49.086Z,92.21
2023-12-15T18:37:18.322Z,92.38
2023-12-15T18:39:47.598Z,92.19
2023-12-15T18:42:17.106Z,92.17
2023-12-15T18:44:45.850Z,92.33
2023-12-15T18:47:15.353Z,92.19
2023-12-15T18:49:43.969Z,92.02
2023-12-15T18:52:13.757Z,91.81
2023-12-15T18:54:43.691Z,91.77
2023-12-15T18:57:12.997Z,91.51
2023-12-15T18:59:41.829Z,91.51
2023-12-15T19:02:11.573Z,91.44
2023-12-15T19:04:41.437Z,91.60
2023-12-15T19:07:10.158Z,91.49
2023-12-15T19:09:39.190Z,91.47
2023-12-15T19:12:08.590Z,91.47
2023-12-15T19:14:38.833Z,91.45
2023-12-15T19:17:07.413Z,91.48
2023-12-15T19:19:35.899Z,91.26
2023-12-15T19:22:06.771Z,90.71
2023-12-15T19:24:35.223Z,90.56
2023-12-15T19:27:04.462Z,90.49
2023-12-15T19:29:32.849Z,90.66
2023-12-15T19:32:01.821Z,90.80
2023-12-15T19:34:30.385Z,90.59
2023-12-15T19:37:00.805Z,90.90
2023-12-15T19:39:29.113Z,90.86
2023-12-15T19:41:57.612Z,90.88
2023-12-15T19:44:28.413Z,91.06
2023-12-15T19:46:56.765Z,90.93
2023-12-15T19:49:28.732Z,91.02
2023-12-15T19:51:58.139Z,91.22
2023-12-15T19:54:26.434Z,91.33
2023-12-15T19:56:54.903Z,91.26
2023-12-15T19:59:25.212Z,91.38
2023-12-15T20:01:56.563Z,91.45
2023-12-15T20:04:25.114Z,91.41
2023-12-15T20:06:53.681Z,91.32
2023-12-15T20:09:22.131Z,91.35
2023-12-15T20:11:50.593Z,91.25
2023-12-15T20:14:18.940Z,91.38
2023-12-15T20:16:47.234Z,91.60
2023-12-15T20:19:15.825Z,91.71
2023-12-15T20:21:44.310Z,91.74
2023-12-15T20:24:13.843Z,91.84
2023-12-15T20:26:43.433Z,92.11
2023-12-15T20:29:12.097Z,91.92
2023-12-15T20:31:44.298Z,91.92
2023-12-15T20:34:13.220Z,92.14
2023-12-15T20:36:41.794Z,92.25
2023-12-15T20:39:15.535Z,92.37
2023-12-15T20:41:43.913Z,92.40
2023-12-15T20:44:14.834Z,92.47
2023-12-15T20:46:45.995Z,92.80
2023-12-15T20:49:14.633Z,92.76
2023-12-15T20:51:43.418Z,93.01
2023-12-15T20:54:13.303Z,93.30
2023-12-15T20:56:42.778Z,93.42
2023-12-15T20:59:11.645Z,93.68
2023-12-15T21:01:40.195Z,93.70
2023-12-15T21:04:08.758Z,93.89
2023-12-15T21:06:37.294Z,94.03
2023-12-15T21:09:06.087Z,94.25
2023-12-15T21:11:35.901Z,94.56
2023-12-15T21:14:04.660Z,94.37
2023-12-15T21:16:34.872Z,94.69
2023-12-15T21:19:03.356Z,95.09
2023-12-15T21:21:34.661Z,95.38
2023-12-15T21:24:03.874Z,95.48
2023-12-15T21:26:32.946Z,95.64
2023-12-15T21:29:01.281Z,95.88
2023-12-15T21:31:31.712Z,96.08
2023-12-15T21:34:00.536Z,95.99
2023-12-15T21:36:29.075Z,96.40
2023-12-15T21:38:57.486Z,97.00
2023-12-15T21:41:27.114Z,96.85
2023-12-15T21:43:55.911Z,97.11
2023-12-15T21:46:24.292Z,97.47
2023-12-15T21:48:55.656Z,97.68
2023-12-15T21:51:27.177Z,97.97
2023-12-15T21:53:55.590Z,97.76
2023-12-15T21:56:23.888Z,97.96
2023-12-15T21:58:54.399Z,98.35
2023-12-15T22:01:23.156Z,98.74
2023-12-15T22:03:52.886Z,98.58
2023-12-15T22:06:21.879Z,98.92
2023-12-15T22:08:50.540Z,98.79
2023-12-15T22:11:19.069Z,98.89
2023-12-15T22:13:47.392Z,98.98
2023-12-15T22:16:15.858Z,98.92
2023-12-15T22:18:44.427Z,98.71
2023-12-15T22:21:13.464Z,98.87
2023-12-15T22:23:41.920Z,98.95
2023-12-15T22:26:13.557Z,99.00
2023-12-15T22:28:42.744Z,99.06
2023-12-15T22:31:11.284Z,98.80
2023-12-15T22:33:40.548Z,99.03
2023-12-15T22:36:09.650Z,99.21
2023-12-15T22:38:39.424Z,99.48
2023-12-15T22:41:12.959Z,99.93
2023-12-15T22:43:42.345Z,99.49
2023-12-15T22:46:10.866Z,99.82
2023-12-15T22:48:42.386Z,99.94
2023-12-15T22:51:11.033Z,100.00
2023-12-15T22:53:39.591Z,99.98
2023-12-15T22:56:10.310Z,100.00
2023-12-15T22:58:38.941Z,100.00
2023-12-15T23:01:07.856Z,100.00
2023-12-15T23:03:37.892Z,100.00
2023-12-15T23:06:07.253Z,100.00
2023-12-15T23:08:35.844Z,100.00
2023-12-15T23:11:04.842Z,100.00
2023-12-15T23:13:34.301Z,100.00
2023-12-15T23:16:03.144Z,100.00
2023-12-15T23:18:31.898Z,100.00
2023-12-15T23:21:07.079Z,100.00
2023-12-15T23:23:40.877Z,100.00
2023-12-15T23:26:09.974Z,100.00
2023-12-15T23:28:38.636Z,100.00
2023-12-15T23:31:07.809Z,100.00
2023-12-15T23:33:36.481Z,100.00
2023-12-15T23:36:11.741Z,100.00
2023-12-15T23:38:41.333Z,100.00
2023-12-15T23:41:09.888Z,100.00
2023-12-15T23:43:38.288Z,100.00
2023-12-15T23:46:06.673Z,100.00
2023-12-15T23:48:35.283Z,100.00
2023-12-15T23:51:04.744Z,100.00
2023-12-15T23:53:33.202Z,100.00
2023-12-15T23:56:01.798Z,100.00
2023-12-15T23:58:31.668Z,100.00
